Time;durP1;ratioP1;P1;durP2;ratioP2;P2;SDS_P1;SDS_P2;PMS_P1;PMS_P2;Temp;Humidity;BMP_temperature;BMP_pressure;BME280_temperature;BME280_humidity;BME280_pressure;Samples;Min_cycle;Max_cycle;Signal;HPM_P1;HPM_P2
2021/07/14 00:01:12;;;;;;;7.80;2.50;;;;;;;;;;6285781;28;20082;-66
2021/07/14 00:04:13;;;;;;;8.70;5.95;;;;;;;;;;6282629;28;20037;-66
2021/07/14 00:07:15;;;;;;;12.38;6.57;;;;;;;;;;6287089;28;20462;-66
2021/07/14 00:10:20;;;;;;;9.48;5.55;;;;;;;;;;6283286;28;20055;-68
2021/07/14 00:13:32;;;;;;;7.57;5.28;;;;;;;;;;6289605;28;20556;-66
2021/07/14 00:23:10;;;;;;;7.25;3.30;;;;;;;;;;6288943;28;20044;-66
2021/07/14 00:26:13;;;;;;;5.88;3.28;;;;;;;;;;6286913;28;20133;-66
2021/07/14 00:29:15;;;;;;;7.43;3.00;;;;;;;;;;6287694;28;20033;-66
2021/07/14 00:32:17;;;;;;;7.93;2.90;;;;;;;;;;6270272;28;20084;-67
2021/07/14 00:35:19;;;;;;;6.20;3.40;;;;;;;;;;6278472;28;20046;-67
2021/07/14 00:38:21;;;;;;;6.55;2.70;;;;;;;;;;6281971;28;20040;-65
2021/07/14 00:41:23;;;;;;;3.50;2.50;;;;;;;;;;6281922;28;20155;-65
2021/07/14 00:44:25;;;;;;;3.95;2.50;;;;;;;;;;6285127;28;20071;-66
2021/07/14 00:47:30;;;;;;;5.13;2.40;;;;;;;;;;6272112;28;20225;-66
2021/07/14 00:50:33;;;;;;;6.60;2.50;;;;;;;;;;6281006;28;20047;-67
2021/07/14 00:53:36;;;;;;;6.50;2.72;;;;;;;;;;6290429;28;20411;-65
2021/07/14 00:56:40;;;;;;;;;;;;;;;;;;6286507;28;20457;-66
2021/07/14 00:59:41;;;;;;;4.60;1.60;;;;;;;;;;6294155;28;19928;-67
2021/07/14 01:02:43;;;;;;;7.93;2.13;;;;;;;;;;6283824;28;20098;-68
2021/07/14 01:05:45;;;;;;;6.35;2.05;;;;;;;;;;6288309;28;20044;-65
2021/07/14 01:08:52;;;;;;;5.93;1.83;;;;;;;;;;6295212;28;20132;-66
2021/07/14 01:12:01;;;;;;;5.47;1.70;;;;;;;;;;6290645;28;20057;-66
2021/07/14 01:15:08;;;;;;;6.57;1.92;;;;;;;;;;6299753;28;20047;-64
2021/07/14 01:18:17;;;;;;;4.30;2.10;;;;;;;;;;6291301;28;20051;-65
2021/07/14 01:21:20;;;;;;;3.90;1.90;;;;;;;;;;6265914;28;20043;-66
2021/07/14 01:24:28;;;;;;;6.60;2.70;;;;;;;;;;6298084;28;20079;-66
2021/07/14 01:27:34;;;;;;;6.20;1.73;;;;;;;;;;6297069;28;20498;-68
2021/07/14 01:30:35;;;;;;;6.90;1.88;;;;;;;;;;6291878;28;20083;-65
2021/07/14 01:33:41;;;;;;;5.82;1.92;;;;;;;;;;6296142;28;20049;-65
2021/07/14 01:36:44;;;;;;;4.25;1.80;;;;;;;;;;6293497;28;20139;-64
2021/07/14 01:39:46;;;;;;;6.43;2.20;;;;;;;;;;6299569;28;20071;-66
2021/07/14 01:42:53;;;;;;;4.78;2.20;;;;;;;;;;6296923;28;20119;-69
2021/07/14 01:45:56;;;;;;;5.32;2.60;;;;;;;;;;6298621;28;20138;-65
2021/07/14 01:49:02;;;;;;;3.50;2.30;;;;;;;;;;6304224;28;20116;-69
2021/07/14 01:52:05;;;;;;;4.80;2.25;;;;;;;;;;6297131;28;20100;-65
2021/07/14 01:55:09;;;;;;;5.38;2.17;;;;;;;;;;6304033;28;20052;-70
2021/07/14 01:58:14;;;;;;;4.18;2.22;;;;;;;;;;6296807;28;20122;-66
2021/07/14 02:01:19;;;;;;;4.65;2.17;;;;;;;;;;6295229;28;20041;-69
2021/07/14 02:04:33;;;;;;;5.18;1.90;;;;;;;;;;6302224;28;20048;-67
2021/07/14 02:07:35;;;;;;;3.63;2.08;;;;;;;;;;6298989;28;20041;-67
2021/07/14 02:10:39;;;;;;;3.85;1.90;;;;;;;;;;6297750;28;20182;-66
2021/07/14 02:13:44;;;;;;;5.05;2.05;;;;;;;;;;6302842;28;20064;-66
2021/07/14 02:16:46;;;;;;;5.93;2.45;;;;;;;;;;6297521;28;20072;-66
2021/07/14 02:19:53;;;;;;;3.53;1.98;;;;;;;;;;6297852;28;20112;-65
2021/07/14 02:22:54;;;;;;;2.72;1.80;;;;;;;;;;6294815;28;20135;-66
2021/07/14 02:26:00;;;;;;;3.08;1.52;;;;;;;;;;6298751;28;20483;-69
2021/07/14 02:29:04;;;;;;;3.15;1.67;;;;;;;;;;6297242;28;20087;-66
2021/07/14 02:32:06;;;;;;;;;;;;;;;;;;6289128;28;20059;-67
2021/07/14 02:35:09;;;;;;;3.47;1.73;;;;;;;;;;6298798;28;19974;-71
2021/07/14 02:38:15;;;;;;;3.97;1.48;;;;;;;;;;6294350;28;20056;-66
2021/07/14 02:41:21;;;;;;;4.10;1.80;;;;;;;;;;6297219;28;20100;-66
2021/07/14 02:44:25;;;;;;;5.25;1.95;;;;;;;;;;6294308;28;20075;-67
2021/07/14 02:47:27;;;;;;;4.65;1.45;;;;;;;;;;6288541;28;20055;-69
2021/07/14 02:50:31;;;;;;;2.60;1.50;;;;;;;;;;6288822;28;20605;-67
2021/07/14 02:53:33;;;;;;;;;;;;;;;;;;6294280;28;20599;-66
2021/07/14 02:56:36;;;;;;;3.85;1.90;;;;;;;;;;6289517;28;20007;-65
2021/07/14 02:59:40;;;;;;;2.83;1.50;;;;;;;;;;6297396;28;20137;-65
2021/07/14 03:02:42;;;;;;;4.63;1.55;;;;;;;;;;6287968;28;20466;-65
2021/07/14 03:05:44;;;;;;;3.67;1.73;;;;;;;;;;6281610;28;20510;-68
2021/07/14 03:08:48;;;;;;;4.75;1.95;;;;;;;;;;6289836;28;20123;-65
2021/07/14 03:11:50;;;;;;;3.47;1.77;;;;;;;;;;6283883;28;20048;-65
2021/07/14 03:14:56;;;;;;;5.97;1.70;;;;;;;;;;6290611;28;20047;-67
2021/07/14 03:17:58;;;;;;;5.03;1.65;;;;;;;;;;6283038;28;20162;-68
2021/07/14 03:21:01;;;;;;;4.85;2.00;;;;;;;;;;6280910;28;20078;-68
2021/07/14 03:24:06;;;;;;;2.93;1.40;;;;;;;;;;6288013;28;20174;-65
2021/07/14 03:27:09;;;;;;;3.15;1.92;;;;;;;;;;6282484;28;20519;-66
2021/07/14 03:30:13;;;;;;;5.40;2.00;;;;;;;;;;6288687;28;20047;-69
2021/07/14 03:33:15;;;;;;;3.47;1.88;;;;;;;;;;6283972;28;20158;-65
2021/07/14 03:36:18;;;;;;;5.13;2.08;;;;;;;;;;6288649;28;20407;-66
2021/07/14 03:39:20;;;;;;;5.45;1.80;;;;;;;;;;6299274;28;20045;-65
2021/07/14 03:42:22;;;;;;;6.03;1.50;;;;;;;;;;6292494;28;20127;-65
2021/07/14 03:45:25;;;;;;;4.05;1.98;;;;;;;;;;6293765;28;20174;-68
2021/07/14 03:48:29;;;;;;;6.95;1.85;;;;;;;;;;6288259;28;20086;-67
2021/07/14 03:51:31;;;;;;;6.32;1.38;;;;;;;;;;6291845;28;20131;-65
2021/07/14 03:54:33;;;;;;;6.07;1.60;;;;;;;;;;6297275;28;20124;-65
2021/07/14 03:57:35;;;;;;;5.45;1.73;;;;;;;;;;6296669;28;20554;-65
2021/07/14 04:00:38;;;;;;;3.67;1.52;;;;;;;;;;6295873;28;20155;-65
2021/07/14 04:03:41;;;;;;;3.92;2.10;;;;;;;;;;6279736;28;20127;-65
2021/07/14 04:06:44;;;;;;;3.83;1.80;;;;;;;;;;6290852;28;20041;-65
2021/07/14 04:09:47;;;;;;;3.85;1.80;;;;;;;;;;6294350;28;20178;-65
2021/07/14 04:12:50;;;;;;;4.78;2.20;;;;;;;;;;6290284;28;20055;-65
2021/07/14 04:15:53;;;;;;;4.03;1.70;;;;;;;;;;6294657;28;20052;-65
2021/07/14 04:18:54;;;;;;;3.50;2.05;;;;;;;;;;6297294;28;20104;-65
2021/07/14 04:21:57;;;;;;;3.53;1.80;;;;;;;;;;6286392;28;20064;-65
2021/07/14 04:24:59;;;;;;;6.53;1.88;;;;;;;;;;6287734;28;20056;-65
2021/07/14 04:28:01;;;;;;;5.53;1.98;;;;;;;;;;6296477;28;20052;-66
2021/07/14 04:31:04;;;;;;;3.80;1.90;;;;;;;;;;6292104;28;20089;-68
2021/07/14 04:34:05;;;;;;;5.90;2.20;;;;;;;;;;6297177;28;20131;-66
2021/07/14 04:37:07;;;;;;;5.38;1.98;;;;;;;;;;6288753;28;20550;-66
2021/07/14 04:40:09;;;;;;;5.43;1.95;;;;;;;;;;6295416;28;20040;-73
2021/07/14 04:43:11;;;;;;;5.57;2.65;;;;;;;;;;6291219;28;20068;-65
2021/07/14 04:46:14;;;;;;;7.00;2.88;;;;;;;;;;6286199;28;20159;-65
2021/07/14 04:49:16;;;;;;;6.97;2.77;;;;;;;;;;6296168;28;20136;-65
2021/07/14 04:52:17;;;;;;;6.13;3.13;;;;;;;;;;6290415;28;20556;-65
2021/07/14 04:55:19;;;;;;;9.77;3.20;;;;;;;;;;6290299;28;20131;-68
2021/07/14 04:58:21;;;;;;;6.05;3.10;;;;;;;;;;6288928;28;20056;-65
2021/07/14 05:01:24;;;;;;;4.78;2.88;;;;;;;;;;6287827;28;20068;-65
2021/07/14 05:04:26;;;;;;;8.65;3.17;;;;;;;;;;6290295;28;20051;-66
2021/07/14 05:07:29;;;;;;;5.97;3.30;;;;;;;;;;6289710;28;20166;-64
2021/07/14 05:10:31;;;;;;;6.18;2.80;;;;;;;;;;6284908;28;20062;-67
2021/07/14 05:13:32;;;;;;;6.32;2.97;;;;;;;;;;6292692;28;20074;-64
2021/07/14 05:16:35;;;;;;;5.03;2.83;;;;;;;;;;6289049;28;20378;-66
2021/07/14 05:19:37;;;;;;;6.13;3.03;;;;;;;;;;6293592;28;20076;-71
2021/07/14 05:22:39;;;;;;;6.00;3.33;;;;;;;;;;6282495;28;20060;-64
2021/07/14 05:25:40;;;;;;;6.20;3.58;;;;;;;;;;6289394;28;20190;-64
2021/07/14 05:28:42;;;;;;;11.25;3.78;;;;;;;;;;6299580;28;20052;-64
2021/07/14 05:31:46;;;;;;;9.88;3.70;;;;;;;;;;6290419;28;20056;-64
2021/07/14 05:34:48;;;;;;;5.80;3.00;;;;;;;;;;6297401;28;20041;-64
2021/07/14 05:37:49;;;;;;;8.65;3.15;;;;;;;;;;6289693;28;20088;-65
2021/07/14 05:40:52;;;;;;;6.80;3.15;;;;;;;;;;6293153;28;20040;-64
2021/07/14 05:43:55;;;;;;;4.88;2.95;;;;;;;;;;7455187;22;20615;-64
2021/07/14 05:46:58;;;;;;;6.47;3.27;;;;;;;;;;6273932;28;20048;-64
2021/07/14 05:50:00;;;;;;;7.68;3.10;;;;;;;;;;6287690;28;20059;-65
2021/07/14 05:53:01;;;;;;;6.53;3.00;;;;;;;;;;6269981;28;20103;-64
2021/07/14 05:56:03;;;;;;;8.00;3.53;;;;;;;;;;6278964;28;20047;-64
2021/07/14 05:59:05;;;;;;;6.40;3.78;;;;;;;;;;6290989;28;20070;-64
2021/07/14 06:02:08;;;;;;;6.85;3.55;;;;;;;;;;6282089;28;20064;-65
2021/07/14 06:05:12;;;;;;;6.95;3.25;;;;;;;;;;6286377;28;20159;-64
2021/07/14 06:08:14;;;;;;;4.00;2.90;;;;;;;;;;6287260;28;20867;-65
2021/07/14 06:11:15;;;;;;;7.55;2.70;;;;;;;;;;6286527;28;20052;-64
2021/07/14 06:14:17;;;;;;;6.15;3.08;;;;;;;;;;6289643;28;20053;-64
2021/07/14 06:17:20;;;;;;;4.78;3.25;;;;;;;;;;6274196;28;20127;-66
2021/07/14 06:20:22;;;;;;;8.55;3.42;;;;;;;;;;6285330;28;20198;-64
2021/07/14 06:23:23;;;;;;;11.75;3.50;;;;;;;;;;6286240;28;20048;-64
2021/07/14 06:26:25;;;;;;;9.02;3.20;;;;;;;;;;6282698;28;20095;-63
2021/07/14 06:29:27;;;;;;;7.13;3.72;;;;;;;;;;6291792;28;20046;-63
2021/07/14 06:32:30;;;;;;;10.55;3.50;;;;;;;;;;6278696;28;20048;-63
2021/07/14 06:35:32;;;;;;;5.35;2.85;;;;;;;;;;6281611;28;20036;-66
2021/07/14 06:38:34;;;;;;;3.60;3.08;;;;;;;;;;6290458;28;20041;-64
2021/07/14 06:41:36;;;;;;;7.13;3.38;;;;;;;;;;6284597;28;20101;-65
2021/07/14 06:44:38;;;;;;;5.82;3.90;;;;;;;;;;6283123;28;20227;-64
2021/07/14 06:47:41;;;;;;;6.13;3.28;;;;;;;;;;6314946;22;20471;-67
2021/07/14 06:50:43;;;;;;;5.22;3.42;;;;;;;;;;6324165;28;20047;-65
2021/07/14 06:53:45;;;;;;;8.80;3.05;;;;;;;;;;6326845;28;20048;-65
2021/07/14 06:56:47;;;;;;;5.75;3.60;;;;;;;;;;6326465;28;20080;-65
2021/07/14 06:59:49;;;;;;;7.22;3.83;;;;;;;;;;6327970;28;20060;-65
2021/07/14 07:02:53;;;;;;;7.40;3.35;;;;;;;;;;6325521;28;20158;-65
2021/07/14 07:05:55;;;;;;;6.78;3.60;;;;;;;;;;6325739;28;20040;-65
2021/07/14 07:08:58;;;;;;;7.38;3.90;;;;;;;;;;6327147;28;20052;-65
2021/07/14 07:12:00;;;;;;;8.75;3.90;;;;;;;;;;6326514;28;20044;-66
2021/07/14 07:15:02;;;;;;;8.32;4.03;;;;;;;;;;6326706;28;20052;-65
2021/07/14 07:18:05;;;;;;;9.73;4.50;;;;;;;;;;6324248;28;20075;-64
2021/07/14 07:21:09;;;;;;;6.18;3.92;;;;;;;;;;6325831;28;20052;-65
2021/07/14 07:24:11;;;;;;;7.68;3.67;;;;;;;;;;6326578;28;20056;-70
2021/07/14 07:27:13;;;;;;;11.48;4.18;;;;;;;;;;6299436;28;20054;-67
2021/07/14 07:30:16;;;;;;;6.95;4.00;;;;;;;;;;6325185;28;20396;-66
2021/07/14 07:33:19;;;;;;;6.60;3.10;;;;;;;;;;6325040;28;20047;-66
2021/07/14 07:36:21;;;;;;;7.63;3.72;;;;;;;;;;6325032;28;20044;-65
2021/07/14 07:39:23;;;;;;;7.78;3.65;;;;;;;;;;6324784;28;20047;-65
2021/07/14 07:42:25;;;;;;;8.85;3.80;;;;;;;;;;6324212;28;20040;-65
2021/07/14 07:45:28;;;;;;;8.27;3.70;;;;;;;;;;6320038;28;20043;-67
2021/07/14 07:48:32;;;;;;;8.38;3.92;;;;;;;;;;6325060;28;20044;-66
2021/07/14 07:51:34;;;;;;;7.38;3.50;;;;;;;;;;6323783;28;20052;-66
2021/07/14 07:54:36;;;;;;;6.97;4.20;;;;;;;;;;6328813;28;20047;-65
2021/07/14 07:57:38;;;;;;;9.35;3.40;;;;;;;;;;6327881;28;20047;-65
2021/07/14 08:00:40;;;;;;;8.57;3.87;;;;;;;;;;6329743;28;20790;-65
2021/07/14 08:03:44;;;;;;;7.43;3.67;;;;;;;;;;6323954;27;22517;-66
2021/07/14 08:06:46;;;;;;;8.30;4.05;;;;;;;;;;6331425;27;20048;-66
2021/07/14 08:09:48;;;;;;;9.55;4.47;;;;;;;;;;6334850;27;20059;-69
2021/07/14 08:12:50;;;;;;;12.43;4.20;;;;;;;;;;6325734;28;20062;-66
2021/07/14 08:15:55;;;;;;;5.23;3.40;;;;;;;;;;6323159;28;20100;-66
2021/07/14 08:18:58;;;;;;;9.75;4.05;;;;;;;;;;6331029;27;20047;-66
2021/07/14 08:22:00;;;;;;;11.95;4.65;;;;;;;;;;6327587;27;20054;-66
2021/07/14 08:25:02;;;;;;;8.30;4.28;;;;;;;;;;6336631;27;20047;-68
2021/07/14 08:28:05;;;;;;;7.80;4.30;;;;;;;;;;6328634;28;20421;-66
2021/07/14 08:31:07;;;;;;;12.63;5.28;;;;;;;;;;6328200;28;20047;-69
2021/07/14 08:34:11;;;;;;;7.07;4.30;;;;;;;;;;6331536;28;20073;-65
2021/07/14 08:37:13;;;;;;;5.13;4.13;;;;;;;;;;6327161;27;20048;-65
2021/07/14 08:40:15;;;;;;;6.27;4.80;;;;;;;;;;6333832;28;20072;-67
2021/07/14 08:43:20;;;;;;;11.90;4.60;;;;;;;;;;6331366;28;20051;-66
2021/07/14 08:46:23;;;;;;;7.93;4.45;;;;;;;;;;6324448;28;20055;-66
2021/07/14 08:49:26;;;;;;;;;;;;;;;;;;6333733;28;20071;-65
2021/07/14 08:52:28;;;;;;;9.35;4.85;;;;;;;;;;6323760;28;19924;-66
2021/07/14 08:55:29;;;;;;;11.40;4.68;;;;;;;;;;6334856;28;20059;-67
2021/07/14 08:58:31;;;;;;;6.00;4.05;;;;;;;;;;6338684;27;20048;-67
2021/07/14 09:01:33;;;;;;;5.95;3.55;;;;;;;;;;6330504;27;20063;-67
2021/07/14 09:04:37;;;;;;;5.35;3.30;;;;;;;;;;6340733;27;20460;-66
2021/07/14 09:07:39;;;;;;;3.60;3.00;;;;;;;;;;6332262;27;20055;-66
2021/07/14 09:10:41;;;;;;;6.72;3.08;;;;;;;;;;6333356;27;20048;-66
2021/07/14 09:17:55;;;;;;;7.82;3.28;;;;;;;;;;6321919;27;20073;-69
2021/07/14 09:20:58;;;;;;;5.53;3.13;;;;;;;;;;6321788;27;20126;-66
2021/07/14 09:24:24;;;;;;;4.13;3.00;;;;;;;;;;6338134;27;20456;-66
2021/07/14 09:27:35;;;;;;;6.00;3.33;;;;;;;;;;6323000;28;20046;-66
2021/07/14 09:34:26;;;;;;;6.15;2.72;;;;;;;;;;6279898;28;20079;-67
2021/07/14 09:37:29;;;;;;;6.13;3.10;;;;;;;;;;6322546;28;20044;-67
2021/07/14 09:43:59;;;;;;;5.88;2.72;;;;;;;;;;6340882;27;19994;-69
2021/07/14 09:47:19;;;;;;;5.57;2.80;;;;;;;;;;6331629;27;20055;-66
2021/07/14 09:50:48;;;;;;;8.02;2.80;;;;;;;;;;6318846;28;20066;-72
2021/07/14 09:53:53;;;;;;;5.13;2.80;;;;;;;;;;6332305;27;20482;-66
2021/07/14 10:01:26;;;;;;;5.75;2.35;;;;;;;;;;6184273;28;20050;-70
2021/07/14 10:04:30;;;;;;;3.53;1.83;;;;;;;;;;6088162;28;20051;-67
2021/07/14 10:07:32;;;;;;;4.22;2.60;;;;;;;;;;6245561;28;20046;-67
2021/07/14 10:10:35;;;;;;;3.33;2.40;;;;;;;;;;6295107;28;20542;-67
2021/07/14 10:13:38;;;;;;;4.32;2.33;;;;;;;;;;6343235;27;20511;-66
2021/07/14 10:16:47;;;;;;;7.13;2.35;;;;;;;;;;6328424;27;20051;-66
2021/07/14 10:19:56;;;;;;;4.22;2.15;;;;;;;;;;6333730;28;20052;-66
2021/07/14 10:23:00;;;;;;;3.20;2.25;;;;;;;;;;6332206;27;20055;-67
2021/07/14 10:26:21;;;;;;;6.22;2.00;;;;;;;;;;6334285;27;20047;-67
2021/07/14 10:29:23;;;;;;;5.82;2.20;;;;;;;;;;6337918;27;20047;-67
2021/07/14 10:32:25;;;;;;;3.72;2.08;;;;;;;;;;6327603;27;20063;-67
2021/07/14 10:35:28;;;;;;;6.47;2.10;;;;;;;;;;6332222;27;20043;-70
2021/07/14 10:38:31;;;;;;;3.63;1.73;;;;;;;;;;6334001;27;20058;-67
2021/07/14 10:41:35;;;;;;;6.10;1.75;;;;;;;;;;6329165;28;20070;-67
2021/07/14 10:44:37;;;;;;;3.30;1.90;;;;;;;;;;6332227;27;20134;-67
2021/07/14 10:47:39;;;;;;;4.17;1.80;;;;;;;;;;6304059;27;20060;-66
2021/07/14 10:50:46;;;;;;;6.07;2.03;;;;;;;;;;6301160;28;20082;-66
2021/07/14 11:00:57;;;;;;;5.28;2.05;;;;;;;;;;6302260;28;20756;-70
2021/07/14 11:03:58;;;;;;;4.72;2.25;;;;;;;;;;6308159;28;20045;-68
2021/07/14 11:07:03;;;;;;;7.38;2.10;;;;;;;;;;6307139;28;20415;-71
2021/07/14 11:10:25;;;;;;;5.15;1.63;;;;;;;;;;6302577;28;20083;-68
2021/07/14 11:13:31;;;;;;;6.33;2.10;;;;;;;;;;6311205;28;20052;-66
2021/07/14 11:16:34;;;;;;;10.13;2.60;;;;;;;;;;6302807;28;20458;-69
2021/07/14 11:19:45;;;;;;;;;;;;;;;;;;6313915;28;20055;-68
2021/07/14 11:22:49;;;;;;;7.68;2.85;;;;;;;;;;6306463;28;20146;-67
2021/07/14 11:25:55;;;;;;;6.47;2.60;;;;;;;;;;6308754;28;20047;-67
2021/07/14 11:29:16;;;;;;;10.48;2.97;;;;;;;;;;6314164;28;20914;-66
2021/07/14 11:32:56;;;;;;;7.13;3.17;;;;;;;;;;6298130;28;20036;-69
2021/07/14 11:36:04;;;;;;;8.27;2.97;;;;;;;;;;6315502;28;20055;-67
2021/07/14 11:39:06;;;;;;;8.40;3.60;;;;;;;;;;6311687;28;20044;-67
2021/07/14 11:42:17;;;;;;;9.60;4.00;;;;;;;;;;6308018;28;20052;-69
2021/07/14 11:45:35;;;;;;;9.73;4.03;;;;;;;;;;6311146;28;20046;-70
2021/07/14 11:49:14;;;;;;;10.60;3.45;;;;;;;;;;6307390;28;20059;-67
2021/07/14 11:52:53;;;;;;;6.97;3.28;;;;;;;;;;6308885;28;20048;-65
2021/07/14 11:56:00;;;;;;;10.27;3.30;;;;;;;;;;6303690;28;20040;-65
2021/07/14 11:59:08;;;;;;;7.70;3.90;;;;;;;;;;6305126;28;20040;-65
2021/07/14 12:02:19;;;;;;;9.30;3.28;;;;;;;;;;6280361;28;20051;-65
2021/07/14 12:05:31;;;;;;;7.60;3.15;;;;;;;;;;6312304;28;20415;-71
2021/07/14 12:08:38;;;;;;;6.32;2.90;;;;;;;;;;6314374;28;20086;-66
2021/07/14 12:11:42;;;;;;;7.13;2.78;;;;;;;;;;6309112;28;20079;-65
2021/07/14 12:14:45;;;;;;;7.55;2.90;;;;;;;;;;6315890;28;20060;-65
2021/07/14 12:17:49;;;;;;;7.53;3.08;;;;;;;;;;6304561;28;20050;-65
2021/07/14 12:20:51;;;;;;;15.65;4.55;;;;;;;;;;6304370;28;20706;-65
2021/07/14 12:23:53;;;;;;;14.88;4.47;;;;;;;;;;6315843;28;20491;-65
2021/07/14 12:27:17;;;;;;;8.32;2.92;;;;;;;;;;6313458;28;20076;-66
2021/07/14 12:30:24;;;;;;;6.53;3.70;;;;;;;;;;6314630;28;20056;-68
2021/07/14 12:33:36;;;;;;;9.80;3.75;;;;;;;;;;6301967;28;20074;-68
2021/07/14 12:36:39;;;;;;;8.88;3.45;;;;;;;;;;6298586;28;20046;-69
2021/07/14 12:39:41;;;;;;;11.53;4.10;;;;;;;;;;6305751;28;20050;-69
2021/07/14 12:42:45;;;;;;;10.70;3.10;;;;;;;;;;6299863;28;20117;-73
2021/07/14 12:45:48;;;;;;;7.45;3.38;;;;;;;;;;6298401;28;20071;-73
2021/07/14 12:48:52;;;;;;;15.82;7.63;;;;;;;;;;6301542;28;20052;-71
2021/07/14 12:56:24;;;;;;;10.63;3.75;;;;;;;;;;6299540;28;20182;-67
2021/07/14 12:59:43;;;;;;;;;;;;;;;;;;;;;
2021/07/14 13:15:36;;;;;;;8.35;3.17;;;;;;;;;;6225646;28;20468;-68
2021/07/14 13:18:43;;;;;;;8.77;3.90;;;;;;;;;;6293507;28;20047;-67
2021/07/14 13:34:01;;;;;;;8.85;4.28;;;;;;;;;;6301001;28;20028;-67
2021/07/14 13:37:03;;;;;;;10.50;4.65;;;;;;;;;;6299107;28;20048;-68
2021/07/14 13:44:37;;;;;;;6.75;3.50;;;;;;;;;;6252942;28;20041;-67
2021/07/14 13:47:38;;;;;;;8.05;3.88;;;;;;;;;;6249481;28;20083;-68
2021/07/14 13:51:11;;;;;;;7.00;4.03;;;;;;;;;;6295736;28;20129;-68
2021/07/14 13:54:21;;;;;;;7.72;3.67;;;;;;;;;;6296020;28;20052;-68
2021/07/14 13:57:24;;;;;;;8.30;3.97;;;;;;;;;;6298681;28;20052;-67
2021/07/14 14:00:26;;;;;;;;;;;;;;;;;;6296718;28;20049;-66
2021/07/14 14:03:28;;;;;;;8.93;3.83;;;;;;;;;;6287766;28;19977;-66
2021/07/14 14:07:23;;;;;;;6.82;3.22;;;;;;;;;;6317913;27;20127;-66
2021/07/14 14:18:11;;;;;;;4.80;2.33;;;;;;;;;;6278131;28;20396;-67
2021/07/14 14:21:13;;;;;;;6.70;2.33;;;;;;;;;;6286364;28;20050;-66
2021/07/14 14:24:17;;;;;;;6.90;2.40;;;;;;;;;;6305888;28;20048;-66
2021/07/14 14:27:20;;;;;;;8.88;2.20;;;;;;;;;;6297865;28;20041;-66
2021/07/14 14:30:24;;;;;;;4.68;2.20;;;;;;;;;;6303400;28;20488;-70
2021/07/14 14:33:26;;;;;;;4.45;1.95;;;;;;;;;;6296233;28;20101;-67
2021/07/14 14:36:30;;;;;;;4.20;2.03;;;;;;;;;;6296869;28;20055;-66
2021/07/14 14:39:34;;;;;;;4.03;1.80;;;;;;;;;;6301733;28;20060;-67
2021/07/14 14:42:36;;;;;;;4.03;1.90;;;;;;;;;;6296435;28;20109;-66
2021/07/14 14:45:37;;;;;;;7.28;2.10;;;;;;;;;;6290349;28;20051;-66
2021/07/14 14:48:44;;;;;;;4.70;1.90;;;;;;;;;;6309382;28;20059;-67
2021/07/14 14:51:55;;;;;;;3.78;1.90;;;;;;;;;;6304933;28;20506;-66
2021/07/14 14:54:58;;;;;;;5.45;1.95;;;;;;;;;;6309948;28;20068;-66
2021/07/14 14:58:00;;;;;;;5.93;1.65;;;;;;;;;;6307304;28;20052;-68
2021/07/14 15:01:38;;;;;;;3.57;1.67;;;;;;;;;;6311676;28;20039;-68
2021/07/14 15:04:39;;;;;;;2.67;1.48;;;;;;;;;;6312326;28;20450;-67
2021/07/14 15:07:44;;;;;;;5.93;1.67;;;;;;;;;;6315885;28;20643;-66
2021/07/14 15:10:56;;;;;;;5.50;1.67;;;;;;;;;;6293961;28;20190;-65
2021/07/14 15:13:58;;;;;;;6.25;2.00;;;;;;;;;;6312864;28;20043;-66
2021/07/14 15:17:00;;;;;;;6.18;2.03;;;;;;;;;;6307157;28;20129;-66
2021/07/14 15:20:42;;;;;;;4.07;1.85;;;;;;;;;;6315161;28;20056;-66
2021/07/14 15:23:48;;;;;;;4.45;1.75;;;;;;;;;;6253982;28;20063;-66
2021/07/14 15:30:13;;;;;;;5.78;1.85;;;;;;;;;;6318524;28;20047;-68
2021/07/14 15:33:15;;;;;;;5.13;1.73;;;;;;;;;;6306845;28;20439;-68
2021/07/14 15:36:16;;;;;;;5.18;1.60;;;;;;;;;;6306681;28;20049;-67
2021/07/14 15:39:18;;;;;;;3.47;1.70;;;;;;;;;;6316555;28;20083;-68
2021/07/14 15:42:22;;;;;;;3.17;1.48;;;;;;;;;;6308543;28;20044;-67
2021/07/14 15:45:23;;;;;;;;;;;;;;;;;;6307903;28;20139;-67
2021/07/14 15:48:25;;;;;;;3.47;1.83;;;;;;;;;;6301076;28;20050;-66
2021/07/14 15:51:29;;;;;;;3.80;1.60;;;;;;;;;;6300528;28;20117;-68
2021/07/14 15:54:31;;;;;;;3.45;1.90;;;;;;;;;;6306104;28;20191;-66
2021/07/14 15:57:34;;;;;;;5.07;1.30;;;;;;;;;;6305552;28;20048;-66
2021/07/14 16:00:37;;;;;;;3.20;1.60;;;;;;;;;;6316141;28;20063;-66
2021/07/14 16:03:38;;;;;;;3.25;1.77;;;;;;;;;;6307490;28;20135;-68
2021/07/14 16:06:40;;;;;;;4.63;1.63;;;;;;;;;;6306513;28;20440;-67
2021/07/14 16:09:42;;;;;;;3.92;1.50;;;;;;;;;;6309106;28;20541;-66
2021/07/14 16:12:45;;;;;;;2.65;1.35;;;;;;;;;;6300807;28;20125;-66
2021/07/14 16:15:47;;;;;;;6.20;1.60;;;;;;;;;;6294956;28;20071;-68
2021/07/14 16:18:50;;;;;;;3.53;1.80;;;;;;;;;;6303613;28;20055;-66
2021/07/14 16:21:52;;;;;;;3.35;1.40;;;;;;;;;;6296357;28;20055;-66
2021/07/14 16:24:54;;;;;;;3.75;1.48;;;;;;;;;;6310956;28;20454;-66
2021/07/14 16:27:57;;;;;;;5.18;1.58;;;;;;;;;;6298668;28;20514;-65
2021/07/14 16:31:00;;;;;;;3.88;1.67;;;;;;;;;;6298982;28;20422;-68
2021/07/14 16:34:02;;;;;;;4.53;1.60;;;;;;;;;;6303917;28;20123;-66
2021/07/14 16:37:04;;;;;;;2.53;1.40;;;;;;;;;;6299373;28;20036;-66
2021/07/14 16:40:10;;;;;;;3.63;1.70;;;;;;;;;;6305064;28;20502;-68
2021/07/14 16:43:13;;;;;;;4.40;1.58;;;;;;;;;;6301000;28;20491;-69
2021/07/14 16:46:15;;;;;;;4.13;1.30;;;;;;;;;;6299549;28;20082;-66
2021/07/14 16:49:16;;;;;;;5.00;1.60;;;;;;;;;;6326760;28;20114;-66
2021/07/14 16:52:33;;;;;;;2.30;1.30;;;;;;;;;;6310057;28;20044;-66
2021/07/14 16:55:46;;;;;;;5.40;2.08;;;;;;;;;;6302269;28;20056;-67
2021/07/14 16:58:50;;;;;;;5.00;1.42;;;;;;;;;;6266149;28;20048;-67
2021/07/14 17:01:52;;;;;;;4.20;1.60;;;;;;;;;;6318624;28;20047;-66
2021/07/14 17:04:54;;;;;;;6.47;1.90;;;;;;;;;;6335867;28;20047;-67
2021/07/14 17:08:03;;;;;;;4.93;1.83;;;;;;;;;;6323738;28;20107;-65
2021/07/14 17:11:29;;;;;;;4.00;1.52;;;;;;;;;;6324274;28;20054;-65
2021/07/14 17:14:46;;;;;;;;;;;;;;;;;;;;;
2021/07/14 17:21:16;;;;;;;;;;;;;;;;;;;;;
2021/07/14 17:24:24;;;;;;;4.22;1.60;;;;;;;;;;6265563;28;20499;-66
2021/07/14 17:27:43;;;;;;;3.03;1.50;;;;;;;;;;6334400;27;20132;-66
2021/07/14 17:30:59;;;;;;;6.65;1.75;;;;;;;;;;6333094;27;20605;-66
2021/07/14 17:37:20;;;;;;;5.38;1.60;;;;;;;;;;6296221;28;20505;-66
2021/07/14 17:40:57;;;;;;;4.28;1.75;;;;;;;;;;6331312;28;20051;-66
2021/07/14 17:44:02;;;;;;;4.95;1.80;;;;;;;;;;6342781;27;20070;-65
2021/07/14 17:47:27;;;;;;;4.53;2.10;;;;;;;;;;6305901;28;20075;-67
2021/07/14 17:53:48;;;;;;;4.55;2.08;;;;;;;;;;6312531;28;20659;-66
2021/07/14 17:56:52;;;;;;;2.95;1.70;;;;;;;;;;6306396;28;20048;-66
2021/07/14 17:59:59;;;;;;;7.60;1.83;;;;;;;;;;6313158;28;20050;-66
2021/07/14 18:03:02;;;;;;;6.72;1.77;;;;;;;;;;6301496;28;20048;-67
2021/07/14 18:06:14;;;;;;;3.38;1.92;;;;;;;;;;6290170;28;20056;-65
2021/07/14 18:09:16;;;;;;;5.18;2.00;;;;;;;;;;6324335;27;20048;-65
2021/07/14 18:12:18;;;;;;;3.63;1.65;;;;;;;;;;6309435;28;20047;-66
2021/07/14 18:15:21;;;;;;;4.30;2.25;;;;;;;;;;6311686;28;20052;-67
2021/07/14 18:18:34;;;;;;;3.85;1.73;;;;;;;;;;6304551;28;20059;-69
2021/07/14 18:24:57;;;;;;;4.95;2.10;;;;;;;;;;6188469;28;20479;-66
2021/07/14 18:27:59;;;;;;;4.68;2.20;;;;;;;;;;6262192;28;20129;-67
2021/07/14 18:31:01;;;;;;;4.40;1.55;;;;;;;;;;6302881;28;20047;-68
2021/07/14 18:34:06;;;;;;;5.22;2.03;;;;;;;;;;6279092;28;20048;-65
2021/07/14 18:37:08;;;;;;;8.00;3.25;;;;;;;;;;6288104;28;20068;-65
2021/07/14 18:40:57;;;;;;;6.32;2.28;;;;;;;;;;6310630;28;20110;-66
2021/07/14 18:48:08;;;;;;;6.38;1.77;;;;;;;;;;6250244;28;20774;-66
2021/07/14 18:51:33;;;;;;;4.18;1.90;;;;;;;;;;6336380;28;20058;-66
2021/07/14 18:55:17;;;;;;;4.25;1.50;;;;;;;;;;6338800;28;20047;-67
2021/07/14 18:58:22;;;;;;;4.28;1.95;;;;;;;;;;6328258;28;20048;-66
2021/07/14 19:01:25;;;;;;;6.72;2.03;;;;;;;;;;6323903;28;20058;-66
2021/07/14 19:05:08;;;;;;;3.83;1.60;;;;;;;;;;6233939;28;20053;-68
2021/07/14 19:08:20;;;;;;;4.57;1.90;;;;;;;;;;6236640;28;20068;-67
2021/07/14 19:11:28;;;;;;;3.53;1.88;;;;;;;;;;6236688;28;20052;-64
2021/07/14 19:14:31;;;;;;;7.32;1.90;;;;;;;;;;6250215;28;20049;-65
2021/07/14 19:17:55;;;;;;;5.13;1.70;;;;;;;;;;6333063;28;20071;-66
2021/07/14 19:20:59;;;;;;;5.13;2.25;;;;;;;;;;6325230;28;20043;-65
2021/07/14 19:24:05;;;;;;;3.28;1.35;;;;;;;;;;6340811;28;20043;-65
2021/07/14 19:27:07;;;;;;;5.38;1.98;;;;;;;;;;6336621;28;20049;-65
2021/07/14 19:30:54;;;;;;;6.10;1.77;;;;;;;;;;6330264;27;20050;-67
2021/07/14 19:34:30;;;;;;;6.60;2.28;;;;;;;;;;6323212;28;20055;-65
2021/07/14 19:37:32;;;;;;;3.92;1.60;;;;;;;;;;6229366;28;20041;-66
2021/07/14 19:40:36;;;;;;;4.70;2.10;;;;;;;;;;6243985;28;20045;-68
2021/07/14 19:47:28;;;;;;;4.38;1.58;;;;;;;;;;6227101;28;19956;-65
2021/07/14 19:50:31;;;;;;;5.32;2.10;;;;;;;;;;6227861;28;20064;-67
2021/07/14 19:53:35;;;;;;;5.40;2.08;;;;;;;;;;6339506;27;20048;-65
2021/07/14 20:04:23;;;;;;;5.82;1.95;;;;;;;;;;6317698;27;20101;-65
2021/07/14 20:07:45;;;;;;;6.10;2.30;;;;;;;;;;6323697;28;20036;-67
2021/07/14 20:10:56;;;;;;;4.35;2.20;;;;;;;;;;6328239;27;20047;-71
2021/07/14 20:17:30;;;;;;;5.13;2.30;;;;;;;;;;6265030;28;20142;-66
2021/07/14 20:20:35;;;;;;;7.30;2.67;;;;;;;;;;6332482;27;20035;-70
2021/07/14 20:24:11;;;;;;;5.88;2.88;;;;;;;;;;6338645;28;20063;-66
2021/07/14 20:27:13;;;;;;;6.38;2.88;;;;;;;;;;6308052;28;20050;-65